Time;durP1;ratioP1;P1;durP2;ratioP2;P2;SDS_P1;SDS_P2;PMS_P1;PMS_P2;Temp;Humidity;BMP_temperature;BMP_pressure;BME280_temperature;BME280_humidity;BME280_pressure;Samples;Min_cycle;Max_cycle;Signal;HPM_P1;HPM_P2
2023/09/15 00:00:46;;;;;;;4.28;1.52;;;13.90;99.90;;;;;;4233094;28;20075;-80
2023/09/15 00:02:47;;;;;;;4.45;2.33;;;13.30;99.90;;;;;;4232213;28;20039;-81
2023/09/15 00:04:48;;;;;;;5.20;1.55;;;13.90;99.90;;;;;;4229941;27;20161;-81
2023/09/15 00:06:49;;;;;;;6.07;1.60;;;13.90;99.90;;;;;;4230882;28;20407;-81
2023/09/15 00:08:50;;;;;;;5.75;1.73;;;13.90;99.90;;;;;;4249530;27;20035;-81
2023/09/15 00:10:52;;;;;;;7.95;2.00;;;13.80;99.90;;;;;;4230755;28;20039;-80
2023/09/15 00:12:53;;;;;;;11.05;2.17;;;13.80;99.90;;;;;;4250316;27;20047;-80
2023/09/15 00:14:54;;;;;;;6.18;1.90;;;13.80;99.90;;;;;;4249340;27;20047;-80
2023/09/15 00:16:55;;;;;;;4.32;1.60;;;13.80;99.90;;;;;;4232317;28;20063;-80
2023/09/15 00:18:55;;;;;;;4.00;2.10;;;13.70;99.90;;;;;;4253323;27;20039;-81
2023/09/15 00:20:57;;;;;;;4.43;1.90;;;13.60;99.90;;;;;;4233285;28;20039;-80
2023/09/15 00:22:58;;;;;;;5.35;2.25;;;13.70;99.90;;;;;;4231553;28;20498;-80
2023/09/15 00:24:59;;;;;;;4.57;1.80;;;13.70;99.90;;;;;;4232543;28;20054;-81
2023/09/15 00:27:01;;;;;;;7.50;2.45;;;13.60;99.90;;;;;;4231631;28;20044;-82
2023/09/15 00:29:04;;;;;;;9.05;1.95;;;13.60;99.90;;;;;;4231242;28;20047;-81
2023/09/15 00:31:04;;;;;;;5.57;2.67;;;13.70;99.90;;;;;;4258458;27;20051;-80
2023/09/15 00:33:06;;;;;;;4.60;1.85;;;13.70;99.90;;;;;;4257971;27;20054;-81
2023/09/15 00:35:07;;;;;;;3.25;1.73;;;13.70;99.90;;;;;;4259187;27;20103;-80
2023/09/15 00:37:08;;;;;;;5.85;2.17;;;13.60;99.90;;;;;;4241051;28;20059;-80
2023/09/15 00:39:09;;;;;;;6.90;2.35;;;13.50;99.90;;;;;;4257899;27;20073;-79
2023/09/15 00:41:10;;;;;;;6.95;2.20;;;13.50;99.90;;;;;;4221653;28;20044;-80
2023/09/15 00:43:11;;;;;;;8.93;2.50;;;13.50;99.90;;;;;;4240713;28;20603;-81
2023/09/15 00:45:14;;;;;;;4.70;2.17;;;14.10;99.90;;;;;;4259099;27;20423;-80
2023/09/15 00:47:15;;;;;;;11.40;1.90;;;13.40;99.90;;;;;;4237268;28;20104;-81
2023/09/15 00:49:16;;;;;;;6.63;2.10;;;13.30;99.90;;;;;;4249264;27;20074;-81
2023/09/15 00:51:17;;;;;;;4.22;1.60;;;13.30;99.90;;;;;;4214015;28;20043;-80
2023/09/15 00:53:20;;;;;;;4.63;1.65;;;13.90;99.90;;;;;;4249040;27;20050;-80
2023/09/15 00:55:24;;;;;;;6.13;1.77;;;13.60;99.90;;;;;;4213903;28;20044;-81
2023/09/15 00:57:25;;;;;;;3.22;1.70;;;13.30;99.90;;;;;;4230742;28;20053;-80
2023/09/15 00:59:26;;;;;;;8.05;2.00;;;13.20;99.90;;;;;;4249279;27;20043;-81
2023/09/15 01:01:28;;;;;;;4.72;2.13;;;13.30;99.90;;;;;;4248714;27;20047;-80
2023/09/15 01:03:32;;;;;;;4.93;2.40;;;13.20;99.90;;;;;;4248951;27;20552;-81
2023/09/15 01:05:34;;;;;;;5.38;1.60;;;13.20;99.90;;;;;;4230271;28;20148;-81
2023/09/15 01:07:36;;;;;;;6.53;1.92;;;13.20;99.90;;;;;;4248627;27;20503;-81
2023/09/15 01:09:37;;;;;;;3.40;1.40;;;13.20;99.90;;;;;;4248631;27;20123;-81
2023/09/15 01:11:37;;;;;;;9.30;1.98;;;13.10;99.90;;;;;;4248580;27;20047;-81
2023/09/15 01:13:38;;;;;;;5.63;1.65;;;13.10;99.90;;;;;;4248581;27;20168;-80
2023/09/15 01:16:17;;;;;;;4.22;1.88;;;13.10;99.90;;;;;;4229698;28;20058;-80
2023/09/15 01:18:40;;;;;;;5.32;1.63;;;13.10;99.90;;;;;;4185347;28;20051;-81
2023/09/15 01:21:00;;;;;;;5.47;1.70;;;13.10;99.90;;;;;;4201590;28;20082;-81
2023/09/15 01:23:03;;;;;;;;;;;13.00;99.90;;;;;;4230534;28;20574;-80
2023/09/15 01:25:42;;;;;;;4.15;1.85;;;13.10;99.90;;;;;;4213144;28;19924;-80
2023/09/15 01:27:55;;;;;;;2.97;1.88;;;13.00;99.90;;;;;;4191306;28;20134;-80
2023/09/15 01:29:58;;;;;;;4.88;1.80;;;13.00;99.90;;;;;;4231303;28;20040;-80
2023/09/15 01:32:01;;;;;;;5.47;1.73;;;13.00;99.90;;;;;;4229771;28;20052;-81
2023/09/15 01:34:03;;;;;;;3.83;1.67;;;12.90;99.90;;;;;;4229534;28;20047;-81
2023/09/15 01:36:04;;;;;;;4.65;1.70;;;12.90;99.90;;;;;;4231489;28;20561;-81
2023/09/15 01:38:05;;;;;;;4.53;1.45;;;12.90;99.90;;;;;;4224866;28;20067;-81
2023/09/15 01:40:07;;;;;;;6.35;1.85;;;12.80;99.90;;;;;;4231024;28;20142;-81
2023/09/15 01:42:07;;;;;;;4.65;1.67;;;12.80;99.90;;;;;;4230680;28;20043;-80
2023/09/15 01:44:08;;;;;;;7.05;2.10;;;12.80;99.90;;;;;;4230245;28;20062;-81
2023/09/15 01:46:09;;;;;;;8.27;2.72;;;12.80;99.90;;;;;;4229800;28;20043;-81
2023/09/15 01:48:10;;;;;;;5.45;1.80;;;12.80;99.90;;;;;;4231225;28;20503;-81
2023/09/15 01:50:11;;;;;;;6.05;1.90;;;12.80;99.90;;;;;;4231213;28;20078;-81
2023/09/15 01:52:13;;;;;;;5.32;1.75;;;12.70;99.90;;;;;;4230796;28;20055;-81
2023/09/15 01:54:18;;;;;;;5.32;1.85;;;12.70;99.90;;;;;;4230477;28;20048;-81
2023/09/15 01:56:21;;;;;;;6.45;2.00;;;12.70;99.90;;;;;;4229431;28;20044;-81
2023/09/15 01:58:22;;;;;;;5.28;1.75;;;12.70;99.90;;;;;;4231256;28;20483;-81
2023/09/15 02:00:22;;;;;;;10.93;2.25;;;12.70;99.90;;;;;;4231528;28;20044;-81
2023/09/15 02:02:23;;;;;;;7.03;2.00;;;12.60;99.90;;;;;;4231187;28;20051;-81
2023/09/15 02:04:24;;;;;;;3.78;2.08;;;12.60;99.90;;;;;;4229129;28;20055;-81
2023/09/15 02:06:25;;;;;;;11.48;2.78;;;12.60;99.90;;;;;;4230691;28;20032;-81
2023/09/15 02:08:25;;;;;;;8.25;2.85;;;12.60;99.90;;;;;;4230447;28;20043;-81
2023/09/15 02:10:26;;;;;;;7.70;2.22;;;12.50;99.90;;;;;;4229527;28;20459;-81
2023/09/15 02:12:27;;;;;;;7.28;2.78;;;11.70;99.90;;;;;;4230886;28;20043;-81
2023/09/15 02:14:28;;;;;;;4.63;2.15;;;12.50;99.90;;;;;;4229315;28;20118;-81
2023/09/15 02:16:29;;;;;;;9.82;2.33;;;12.50;99.90;;;;;;4229292;28;20052;-81
2023/09/15 02:18:30;;;;;;;7.60;1.98;;;12.50;99.90;;;;;;4230941;28;20051;-81
2023/09/15 02:20:31;;;;;;;6.40;2.00;;;12.40;99.90;;;;;;4229910;28;20463;-81
2023/09/15 02:22:32;;;;;;;4.53;2.03;;;12.40;99.90;;;;;;4230952;28;20113;-81
2023/09/15 02:24:32;;;;;;;7.38;2.65;;;12.40;99.90;;;;;;4230452;28;20040;-81
2023/09/15 02:26:33;;;;;;;6.25;1.90;;;12.40;99.90;;;;;;4230573;28;20115;-81
2023/09/15 02:28:34;;;;;;;7.88;2.20;;;12.40;99.90;;;;;;4230957;28;20044;-81
2023/09/15 02:30:37;;;;;;;4.78;2.17;;;12.40;99.90;;;;;;4230838;28;20093;-81
2023/09/15 02:32:38;;;;;;;7.75;2.35;;;12.30;99.90;;;;;;4230826;28;20044;-81
2023/09/15 02:34:39;;;;;;;14.13;2.85;;;12.30;99.90;;;;;;4233999;28;20043;-81
2023/09/15 02:36:40;;;;;;;5.00;2.15;;;12.30;99.90;;;;;;4234078;28;20043;-81
2023/09/15 02:38:40;;;;;;;9.25;2.25;;;12.20;99.90;;;;;;4234092;28;20043;-81
2023/09/15 02:40:41;;;;;;;6.88;1.92;;;12.20;99.90;;;;;;4233192;28;20118;-81
2023/09/15 02:42:42;;;;;;;6.10;2.30;;;12.30;99.90;;;;;;4233571;28;20039;-81
2023/09/15 02:44:43;;;;;;;4.45;2.05;;;12.20;99.90;;;;;;4234020;28;20425;-81
2023/09/15 02:46:44;;;;;;;9.75;2.90;;;12.20;99.90;;;;;;4232891;28;20048;-81
2023/09/15 02:48:45;;;;;;;5.03;2.33;;;12.20;99.90;;;;;;4233566;28;20047;-81
2023/09/15 02:50:45;;;;;;;5.95;1.80;;;12.20;99.90;;;;;;4233877;28;20035;-81
2023/09/15 02:52:46;;;;;;;7.30;2.25;;;12.20;99.90;;;;;;4233845;28;20044;-81
2023/09/15 02:54:50;;;;;;;6.32;2.10;;;12.20;99.90;;;;;;4233695;28;20071;-81
2023/09/15 02:56:50;;;;;;;5.72;2.22;;;11.80;99.90;;;;;;4233677;28;20036;-81
2023/09/15 02:58:51;;;;;;;10.73;2.63;;;12.10;99.90;;;;;;4233276;28;20048;-81
2023/09/15 03:00:52;;;;;;;6.78;2.40;;;12.20;99.90;;;;;;4233741;28;20514;-81
2023/09/15 03:02:53;;;;;;;5.85;2.10;;;12.10;99.90;;;;;;4233718;28;20118;-81
2023/09/15 03:04:54;;;;;;;5.13;2.30;;;12.10;99.90;;;;;;4233795;28;20551;-81
2023/09/15 03:06:55;;;;;;;5.03;2.10;;;12.10;99.90;;;;;;4232557;28;20046;-80
2023/09/15 03:08:56;;;;;;;5.45;1.90;;;12.10;99.90;;;;;;4233647;28;20035;-81
2023/09/15 03:10:57;;;;;;;6.97;1.77;;;12.00;99.90;;;;;;4233441;28;20048;-81
2023/09/15 03:12:57;;;;;;;5.03;1.60;;;12.00;99.90;;;;;;4233350;28;20813;-80
2023/09/15 03:14:59;;;;;;;7.28;2.30;;;12.00;99.90;;;;;;4233458;28;20040;-81
2023/09/15 03:16:59;;;;;;;8.05;2.28;;;12.00;99.90;;;;;;4232922;28;20059;-81
2023/09/15 03:19:00;;;;;;;4.25;2.15;;;12.00;99.90;;;;;;4233421;28;20400;-81
2023/09/15 03:21:02;;;;;;;4.72;1.85;;;12.00;99.90;;;;;;4233323;28;20132;-81
2023/09/15 03:23:03;;;;;;;6.05;2.50;;;12.00;99.90;;;;;;4231610;28;20135;-81
2023/09/15 03:25:04;;;;;;;5.78;2.25;;;11.90;99.90;;;;;;4233505;28;20046;-81
2023/09/15 03:27:05;;;;;;;6.10;2.15;;;11.90;99.90;;;;;;4232297;28;20491;-81
2023/09/15 03:29:06;;;;;;;4.13;2.30;;;11.90;99.90;;;;;;4233453;28;20043;-81
2023/09/15 03:31:08;;;;;;;7.47;2.13;;;11.90;99.90;;;;;;4233326;28;20051;-82
2023/09/15 03:33:08;;;;;;;9.57;2.65;;;12.10;99.90;;;;;;4232641;27;20048;-82
2023/09/15 03:35:10;;;;;;;4.20;2.05;;;11.90;99.90;;;;;;4233285;28;20048;-82
2023/09/15 03:37:11;;;;;;;5.40;1.95;;;11.80;99.90;;;;;;4233152;28;20092;-82
2023/09/15 03:39:12;;;;;;;3.63;1.90;;;11.80;99.90;;;;;;4219679;28;20112;-82
2023/09/15 03:41:13;;;;;;;6.65;2.20;;;11.80;99.90;;;;;;4215260;28;20615;-82
2023/09/15 03:43:15;;;;;;;5.25;1.90;;;11.80;99.90;;;;;;4214891;28;20131;-82
2023/09/15 03:45:15;;;;;;;8.35;2.75;;;11.80;99.90;;;;;;4216307;28;20075;-82
2023/09/15 03:47:16;;;;;;;5.05;1.98;;;11.80;99.90;;;;;;4216925;28;20048;-81
2023/09/15 03:49:17;;;;;;;6.15;2.30;;;11.70;99.90;;;;;;4215772;28;20086;-81
2023/09/15 03:51:18;;;;;;;7.68;2.58;;;11.70;99.90;;;;;;4225549;28;20040;-81
2023/09/15 03:53:19;;;;;;;9.43;2.90;;;11.70;99.90;;;;;;4234780;28;20119;-81
2023/09/15 03:55:20;;;;;;;5.35;2.30;;;11.70;99.90;;;;;;4233521;28;20071;-81
2023/09/15 03:57:21;;;;;;;6.50;2.60;;;11.60;99.90;;;;;;4232764;27;20048;-80
2023/09/15 03:59:24;;;;;;;11.50;3.28;;;11.60;99.90;;;;;;4234824;28;20433;-81
2023/09/15 04:01:25;;;;;;;5.57;2.20;;;11.60;99.90;;;;;;4249085;28;20043;-80
2023/09/15 04:03:26;;;;;;;6.63;2.50;;;11.50;99.90;;;;;;4234057;28;20126;-81
2023/09/15 04:05:27;;;;;;;4.65;1.83;;;11.50;99.90;;;;;;4234907;28;20043;-81
2023/09/15 04:07:28;;;;;;;4.03;2.05;;;11.60;99.90;;;;;;4234276;28;20448;-81
2023/09/15 04:09:29;;;;;;;5.65;2.70;;;11.60;99.90;;;;;;4234351;28;20044;-81
2023/09/15 04:11:31;;;;;;;4.35;2.15;;;11.50;99.90;;;;;;4216679;28;20538;-81
2023/09/15 04:13:32;;;;;;;6.22;3.22;;;11.70;99.90;;;;;;4234708;28;20040;-81
2023/09/15 04:15:32;;;;;;;6.70;2.58;;;11.50;99.90;;;;;;4238534;27;20349;-81
2023/09/15 04:17:33;;;;;;;4.32;2.00;;;11.50;99.90;;;;;;4251569;27;20057;-81
2023/09/15 04:19:34;;;;;;;6.68;2.15;;;11.50;99.90;;;;;;4233229;28;20105;-83
2023/09/15 04:21:38;;;;;;;4.18;2.20;;;11.50;99.90;;;;;;4251680;27;20152;-80
2023/09/15 04:23:38;;;;;;;3.22;2.10;;;11.50;99.90;;;;;;4251893;27;20505;-80
2023/09/15 04:25:39;;;;;;;6.00;2.30;;;11.40;99.90;;;;;;4232463;28;20073;-81
2023/09/15 04:27:40;;;;;;;5.13;2.33;;;11.40;99.90;;;;;;4251557;27;20503;-81
2023/09/15 04:29:54;;;;;;;5.90;2.33;;;11.40;99.90;;;;;;4251250;27;20046;-81
2023/09/15 04:31:56;;;;;;;24.77;3.85;;;11.40;99.90;;;;;;4250869;27;20043;-81
2023/09/15 04:33:57;;;;;;;4.63;2.20;;;11.40;99.90;;;;;;4249331;27;20050;-81
2023/09/15 04:35:57;;;;;;;5.80;2.30;;;11.40;99.90;;;;;;4249374;27;20488;-81
2023/09/15 04:38:02;;;;;;;6.00;2.30;;;11.40;99.90;;;;;;4249129;27;20046;-81
2023/09/15 04:40:06;;;;;;;9.55;2.40;;;11.30;99.90;;;;;;4248863;27;20388;-81
2023/09/15 04:42:07;;;;;;;5.30;2.78;;;11.30;99.90;;;;;;4230986;28;20036;-81
2023/09/15 04:44:07;;;;;;;9.55;2.40;;;11.40;99.90;;;;;;4249259;27;20139;-81
2023/09/15 04:46:08;;;;;;;6.72;2.70;;;11.30;99.90;;;;;;4249115;27;20035;-81
2023/09/15 04:48:09;;;;;;;7.00;2.08;;;11.30;99.90;;;;;;4230287;28;20035;-80
2023/09/15 04:50:13;;;;;;;3.88;2.25;;;11.20;99.90;;;;;;4225131;28;20565;-81
2023/09/15 04:52:14;;;;;;;5.70;2.83;;;10.20;99.90;;;;;;4220359;28;20401;-81
2023/09/15 04:54:15;;;;;;;8.00;2.97;;;11.10;99.90;;;;;;4252244;27;20043;-80
2023/09/15 04:56:15;;;;;;;5.50;2.70;;;11.20;99.90;;;;;;4225422;28;20043;-81
2023/09/15 04:58:16;;;;;;;7.10;2.33;;;11.20;99.90;;;;;;4235913;27;20043;-81
2023/09/15 05:00:23;;;;;;;8.07;2.65;;;11.20;99.90;;;;;;4231595;28;20047;-81
2023/09/15 05:02:24;;;;;;;4.25;2.70;;;11.20;99.90;;;;;;4250868;27;20406;-81
2023/09/15 05:04:25;;;;;;;5.00;2.20;;;11.10;99.90;;;;;;4249080;27;20122;-81
2023/09/15 05:06:26;;;;;;;4.72;2.78;;;10.10;99.90;;;;;;4248876;27;20042;-81
2023/09/15 05:08:26;;;;;;;4.38;2.45;;;11.10;99.90;;;;;;4242784;27;20082;-81
2023/09/15 05:10:27;;;;;;;6.80;2.42;;;11.10;99.90;;;;;;4231907;28;20530;-81
2023/09/15 05:12:28;;;;;;;7.05;2.55;;;11.10;99.90;;;;;;4214406;28;20043;-81
2023/09/15 05:14:30;;;;;;;4.57;2.55;;;11.00;99.90;;;;;;4231942;28;20047;-81
2023/09/15 05:16:30;;;;;;;5.13;3.10;;;12.10;99.90;;;;;;4231637;28;20056;-81
2023/09/15 05:18:31;;;;;;;5.68;3.08;;;11.00;99.90;;;;;;4247203;27;20495;-81
2023/09/15 05:20:32;;;;;;;3.50;2.30;;;11.10;99.90;;;;;;4229964;28;20111;-81
2023/09/15 05:22:33;;;;;;;11.13;3.28;;;11.00;99.90;;;;;;4230109;28;20847;-81
2023/09/15 05:24:34;;;;;;;6.25;2.55;;;11.00;99.90;;;;;;4248472;27;20085;-81
2023/09/15 05:26:35;;;;;;;5.30;2.67;;;11.00;99.90;;;;;;4248163;27;20076;-82
2023/09/15 05:28:36;;;;;;;9.27;3.72;;;11.00;99.90;;;;;;4230098;28;20047;-81
2023/09/15 05:30:37;;;;;;;7.35;3.08;;;11.10;99.90;;;;;;4230242;28;20070;-82
2023/09/15 05:32:38;;;;;;;11.10;3.40;;;11.00;99.90;;;;;;4248306;27;20062;-82
2023/09/15 05:34:39;;;;;;;6.82;3.30;;;11.00;99.90;;;;;;4248055;27;20483;-81
2023/09/15 05:36:39;;;;;;;7.28;3.65;;;11.00;99.90;;;;;;4247795;27;20099;-81
2023/09/15 05:38:40;;;;;;;5.40;3.33;;;11.10;99.90;;;;;;4248369;27;20054;-81
2023/09/15 05:40:41;;;;;;;9.90;3.28;;;11.10;99.90;;;;;;4229878;28;20060;-81
2023/09/15 05:42:42;;;;;;;5.55;3.30;;;11.00;99.90;;;;;;4248122;27;20095;-82
2023/09/15 05:44:43;;;;;;;7.90;3.90;;;11.10;99.90;;;;;;4243505;27;20130;-82
2023/09/15 05:46:44;;;;;;;10.82;4.35;;;11.10;99.90;;;;;;4231318;28;20522;-81
2023/09/15 05:48:45;;;;;;;5.45;3.25;;;11.10;99.90;;;;;;4231207;28;20047;-81
2023/09/15 05:50:47;;;;;;;10.82;3.60;;;11.10;99.90;;;;;;4231130;28;20380;-81
2023/09/15 05:52:47;;;;;;;8.60;4.05;;;11.00;99.90;;;;;;4245070;28;20449;-81
2023/09/15 05:54:49;;;;;;;10.38;3.55;;;11.10;99.90;;;;;;4247696;28;20051;-81
2023/09/15 05:56:50;;;;;;;5.47;3.15;;;11.10;99.90;;;;;;4212654;28;20131;-81
2023/09/15 05:58:51;;;;;;;7.57;4.50;;;11.10;99.90;;;;;;4247956;28;20046;-81
2023/09/15 06:00:55;;;;;;;7.40;3.83;;;11.10;99.90;;;;;;4229686;28;20039;-81
2023/09/15 06:02:56;;;;;;;9.13;3.88;;;11.10;99.90;;;;;;4229733;28;20449;-81
2023/09/15 06:04:56;;;;;;;8.15;4.18;;;11.20;99.90;;;;;;4238277;28;20089;-81
2023/09/15 06:06:57;;;;;;;11.18;3.67;;;10.00;99.90;;;;;;4229838;28;20388;-81
2023/09/15 06:09:01;;;;;;;8.38;3.58;;;11.10;99.90;;;;;;4215824;28;20079;-81
2023/09/15 06:11:03;;;;;;;8.57;3.80;;;11.20;99.90;;;;;;4240599;27;20072;-82
2023/09/15 06:13:04;;;;;;;10.40;3.75;;;11.20;99.90;;;;;;4216110;28;20485;-81
2023/09/15 06:15:05;;;;;;;7.70;4.20;;;11.20;99.90;;;;;;4233505;28;20104;-81
2023/09/15 06:17:06;;;;;;;10.70;4.55;;;11.30;99.90;;;;;;4233852;28;20116;-81
2023/09/15 06:19:06;;;;;;;9.55;4.38;;;11.30;99.90;;;;;;4217827;27;20547;-81
2023/09/15 06:21:07;;;;;;;8.55;4.40;;;11.30;99.90;;;;;;4230666;28;20047;-81
2023/09/15 06:23:09;;;;;;;8.50;4.15;;;11.30;99.90;;;;;;4230948;28;20047;-81
2023/09/15 06:25:10;;;;;;;6.50;3.63;;;12.20;99.90;;;;;;4249428;27;20531;-80
2023/09/15 06:27:10;;;;;;;8.63;4.38;;;11.40;99.90;;;;;;4234196;28;20079;-81
2023/09/15 06:29:12;;;;;;;8.00;4.13;;;11.40;99.90;;;;;;4198971;28;20438;-81
2023/09/15 06:31:13;;;;;;;7.15;4.30;;;11.50;99.90;;;;;;4233674;28;20567;-81
2023/09/15 06:33:14;;;;;;;9.73;5.03;;;11.40;99.90;;;;;;4233765;28;20044;-81
2023/09/15 06:35:14;;;;;;;9.57;4.10;;;11.50;99.90;;;;;;4233979;28;20051;-81
2023/09/15 06:37:15;;;;;;;9.35;4.53;;;11.50;99.90;;;;;;4216526;28;20052;-81
2023/09/15 06:39:16;;;;;;;9.00;4.90;;;10.40;99.90;;;;;;4250992;27;20078;-81
2023/09/15 06:41:17;;;;;;;11.20;4.60;;;11.60;99.90;;;;;;4232623;28;20047;-80
2023/09/15 06:43:21;;;;;;;6.65;3.65;;;11.80;99.90;;;;;;4232398;28;20051;-80
2023/09/15 06:45:22;;;;;;;6.88;4.28;;;11.70;99.90;;;;;;4232451;28;20047;-81
2023/09/15 06:47:24;;;;;;;9.00;4.53;;;11.80;99.90;;;;;;4232537;28;20480;-80
2023/09/15 06:49:25;;;;;;;8.73;4.57;;;12.00;99.90;;;;;;4227750;28;20051;-80
2023/09/15 06:51:27;;;;;;;8.73;4.57;;;12.00;99.90;;;;;;4250220;27;20437;-81
2023/09/15 06:53:28;;;;;;;8.70;4.90;;;12.10;99.90;;;;;;4250800;27;20053;-82
2023/09/15 06:55:30;;;;;;;9.23;4.30;;;12.20;99.90;;;;;;4216532;28;20072;-81
2023/09/15 06:57:31;;;;;;;11.00;4.18;;;12.30;99.90;;;;;;4233669;28;20051;-81
2023/09/15 06:59:32;;;;;;;13.15;4.45;;;12.40;99.90;;;;;;4232927;28;20043;-80
2023/09/15 07:01:33;;;;;;;13.77;5.18;;;12.60;99.90;;;;;;4233829;28;20474;-80
2023/09/15 07:03:33;;;;;;;11.73;4.57;;;12.30;99.90;;;;;;4234207;28;20437;-81
2023/09/15 07:05:37;;;;;;;7.72;4.80;;;12.80;99.90;;;;;;4234067;28;20039;-81
2023/09/15 07:07:41;;;;;;;7.10;4.13;;;12.90;99.90;;;;;;4231595;28;20055;-81
2023/09/15 07:09:41;;;;;;;9.73;4.55;;;13.20;99.90;;;;;;4250805;27;20039;-82
2023/09/15 07:11:42;;;;;;;7.13;3.97;;;13.00;99.90;;;;;;4250927;27;20050;-81
2023/09/15 07:13:43;;;;;;;9.50;4.20;;;13.10;99.90;;;;;;4249708;27;20058;-82
2023/09/15 07:15:47;;;;;;;10.00;4.82;;;13.10;99.90;;;;;;4233638;28;20054;-81
2023/09/15 07:17:48;;;;;;;8.50;4.28;;;13.20;99.90;;;;;;4233008;28;20047;-81
2023/09/15 07:19:49;;;;;;;8.55;4.13;;;13.40;99.90;;;;;;4232490;28;20032;-82
2023/09/15 07:21:50;;;;;;;9.93;4.30;;;13.60;99.90;;;;;;4233204;28;20050;-82
2023/09/15 07:23:50;;;;;;;8.45;4.00;;;13.80;99.90;;;;;;4233551;28;20480;-81
2023/09/15 07:25:51;;;;;;;8.13;4.60;;;13.90;99.90;;;;;;4249506;27;20503;-82
2023/09/15 07:27:52;;;;;;;6.80;3.97;;;14.00;99.90;;;;;;4250110;27;20050;-80
2023/09/15 07:29:53;;;;;;;14.57;4.10;;;14.10;99.90;;;;;;4231823;28;20138;-79
2023/09/15 07:31:57;;;;;;;9.10;4.03;;;14.30;99.90;;;;;;4232147;28;20039;-80
2023/09/15 07:33:58;;;;;;;9.43;4.20;;;14.40;99.90;;;;;;4250158;27;20509;-80
2023/09/15 07:36:03;;;;;;;7.05;4.38;;;14.50;99.90;;;;;;4250075;27;20035;-80
2023/09/15 07:38:05;;;;;;;10.45;4.30;;;14.60;99.90;;;;;;4249825;27;20175;-81
2023/09/15 07:40:09;;;;;;;11.60;4.75;;;14.70;99.90;;;;;;4250195;27;20449;-80
2023/09/15 07:42:10;;;;;;;7.97;4.03;;;14.80;99.90;;;;;;4249981;27;20040;-80
2023/09/15 07:44:11;;;;;;;8.00;4.28;;;14.80;99.90;;;;;;4250257;27;20107;-81
2023/09/15 07:46:14;;;;;;;8.70;3.78;;;15.00;99.90;;;;;;4231836;28;20537;-81
2023/09/15 07:48:15;;;;;;;9.30;4.10;;;15.00;99.90;;;;;;4249759;27;20043;-80
2023/09/15 07:50:18;;;;;;;7.72;3.97;;;15.20;99.90;;;;;;4251301;27;20091;-79
2023/09/15 07:52:19;;;;;;;10.35;4.28;;;15.30;99.90;;;;;;4249776;27;20066;-78
2023/09/15 07:54:24;;;;;;;12.13;4.40;;;15.40;99.90;;;;;;4244538;27;20076;-80
2023/09/15 07:56:25;;;;;;;7.22;4.05;;;15.70;99.90;;;;;;4232652;28;20051;-80
2023/09/15 07:58:26;;;;;;;8.02;4.00;;;15.90;99.90;;;;;;4232980;28;20495;-80
2023/09/15 08:00:26;;;;;;;5.28;3.30;;;16.00;99.90;;;;;;4238933;27;20053;-78
2023/09/15 08:02:30;;;;;;;9.05;3.92;;;;;;;;;;4254088;27;20047;-81
2023/09/15 08:04:32;;;;;;;9.15;3.65;;;;;;;;;;4253883;27;20074;-79
2023/09/15 08:06:32;;;;;;;8.35;3.80;;;16.10;99.90;;;;;;4249849;27;20499;-79
2023/09/15 08:08:34;;;;;;;10.57;4.50;;;17.20;99.90;;;;;;4227025;27;20093;-80
2023/09/15 08:10:35;;;;;;;5.72;3.50;;;;;;;;;;4244648;27;20039;-80
2023/09/15 08:12:37;;;;;;;9.98;4.38;;;;;;;;;;4249511;27;20035;-80
2023/09/15 08:14:40;;;;;;;7.13;3.55;;;;;;;;;;4249538;27;20130;-80
2023/09/15 08:16:41;;;;;;;8.43;4.18;;;;;;;;;;4248109;27;20495;-80
2023/09/15 08:18:42;;;;;;;10.07;4.07;;;;;;;;;;4238407;27;20047;-79
2023/09/15 08:20:43;;;;;;;6.93;4.10;;;;;;;;;;4212236;28;20059;-80
2023/09/15 08:22:44;;;;;;;7.13;3.42;;;;;;;;;;4213860;28;20044;-80
2023/09/15 08:24:47;;;;;;;6.90;3.13;;;;;;;;;;4196879;28;20051;-80
2023/09/15 08:26:48;;;;;;;11.40;3.15;;;;;;;;;;4231885;28;20510;-80
2023/09/15 08:28:49;;;;;;;6.53;2.88;;;;;;;;;;4213979;28;20052;-80
2023/09/15 08:30:50;;;;;;;7.63;3.20;;;;;;;;;;4231059;28;20043;-80
2023/09/15 08:32:51;;;;;;;4.75;2.85;;;;;;;;;;4213723;28;20047;-80
2023/09/15 08:34:54;;;;;;;7.10;3.38;;;;;;;;;;4232386;28;20050;-80
2023/09/15 08:36:55;;;;;;;6.85;3.38;;;;;;;;;;4217390;28;20040;-79
2023/09/15 08:38:56;;;;;;;6.88;2.70;;;;;;;;;;4231524;28;20101;-80
2023/09/15 08:41:00;;;;;;;5.30;2.88;;;;;;;;;;4213651;28;20135;-79
2023/09/15 08:43:01;;;;;;;7.75;3.40;;;;;;;;;;4213808;28;20047;-79
2023/09/15 08:45:05;;;;;;;8.77;3.30;;;;;;;;;;4234733;27;20113;-81
2023/09/15 08:47:07;;;;;;;6.57;2.70;;;;;;;;;;4221645;28;20032;-81
2023/09/15 08:49:08;;;;;;;4.85;2.53;;;;;;;;;;4214154;28;20039;-81
2023/09/15 08:51:16;;;;;;;7.45;3.25;;;;;;;;;;4247174;27;1280460;-81
2023/09/15 08:53:18;;;;;;;8.27;2.70;;;;;;;;;;4280216;27;20047;-81
2023/09/15 08:55:19;;;;;;;8.43;2.72;;;;;;;;;;4282524;27;20095;-82
2023/09/15 08:57:21;;;;;;;7.32;2.50;;;;;;;;;;4273233;27;20087;-81
2023/09/15 08:59:22;;;;;;;5.55;2.55;;;;;;;;;;4240292;28;20078;-81
2023/09/15 09:01:24;;;;;;;7.47;2.65;;;;;;;;;;4245700;28;20053;-81
2023/09/15 09:03:25;;;;;;;5.97;2.33;;;;;;;;;;4261726;27;20130;-81
2023/09/15 09:05:27;;;;;;;9.13;2.50;;;;;;;;;;4244932;28;20476;-81
2023/09/15 09:07:28;;;;;;;5.78;2.00;;;;;;;;;;4260855;27;20109;-82
2023/09/15 09:09:30;;;;;;;5.50;2.40;;;;;;;;;;4244747;27;20130;-82
2023/09/15 09:11:32;;;;;;;8.98;2.35;;;;;;;;;;4262818;27;20094;-83
2023/09/15 09:13:33;;;;;;;6.57;1.90;;;17.70;99.90;;;;;;4245762;27;20055;-82
2023/09/15 09:15:35;;;;;;;5.88;2.25;;;27.20;99.30;;;;;;4279778;27;20115;-82
2023/09/15 09:17:39;;;;;;;5.88;2.53;;;27.30;99.00;;;;;;4270599;27;20125;-82
2023/09/15 09:19:46;;;;;;;7.88;1.83;;;27.60;98.10;;;;;;4262505;27;20053;-82
2023/09/15 09:21:46;;;;;;;3.72;1.67;;;27.80;97.90;;;;;;4247263;28;20148;-82
2023/09/15 09:23:49;;;;;;;7.10;2.70;;;28.20;98.00;;;;;;4244174;28;20040;-82
2023/09/15 09:25:50;;;;;;;5.90;2.03;;;28.30;97.10;;;;;;4262729;27;20115;-82
2023/09/15 09:27:50;;;;;;;7.38;2.38;;;28.30;96.00;;;;;;4243701;28;20048;-82
2023/09/15 09:29:54;;;;;;;8.30;2.13;;;27.90;95.80;;;;;;4262424;27;20085;-81
2023/09/15 09:31:55;;;;;;;5.68;1.80;;;27.50;95.20;;;;;;4262458;27;20039;-82
2023/09/15 09:33:57;;;;;;;7.57;1.83;;;27.50;95.30;;;;;;4262338;27;20039;-82
2023/09/15 09:36:08;;;;;;;6.43;1.90;;;27.20;94.50;;;;;;4261608;27;20062;-82
2023/09/15 09:38:12;;;;;;;4.45;1.90;;;26.90;94.20;;;;;;4262254;27;20112;-82
2023/09/15 09:40:13;;;;;;;4.80;1.73;;;26.50;93.90;;;;;;4261877;27;20061;-82
2023/09/15 09:42:14;;;;;;;4.25;1.80;;;25.90;93.40;;;;;;4261835;27;20039;-82
2023/09/15 09:44:15;;;;;;;5.63;1.70;;;25.60;93.60;;;;;;4262163;27;20039;-82
2023/09/15 09:46:19;;;;;;;6.25;1.98;;;25.60;94.40;;;;;;4262283;27;20394;-81
2023/09/15 09:48:23;;;;;;;7.93;2.20;;;25.70;94.40;;;;;;4262412;27;20167;-83
2023/09/15 09:50:26;;;;;;;5.85;2.20;;;25.50;93.80;;;;;;4242983;28;20104;-81
2023/09/15 09:52:27;;;;;;;8.18;2.10;;;25.30;94.00;;;;;;4262082;27;20126;-81
2023/09/15 09:54:27;;;;;;;6.13;2.45;;;26.10;94.70;;;;;;4262054;27;20088;-81
2023/09/15 09:56:31;;;;;;;9.05;2.08;;;25.10;94.60;;;;;;4243946;28;20046;-82
2023/09/15 09:58:33;;;;;;;6.22;2.20;;;25.20;94.30;;;;;;4262452;27;20075;-82
2023/09/15 10:00:34;;;;;;;7.43;2.10;;;25.00;93.70;;;;;;4262772;27;20031;-83
2023/09/15 10:02:40;;;;;;;6.18;1.70;;;24.70;94.00;;;;;;4232184;28;20046;-83
2023/09/15 10:04:41;;;;;;;8.40;1.83;;;24.70;93.70;;;;;;4250687;27;20088;-82
2023/09/15 10:06:41;;;;;;;8.38;2.20;;;25.00;94.20;;;;;;4233377;28;20050;-82
2023/09/15 10:08:45;;;;;;;5.43;1.92;;;25.10;93.70;;;;;;4251707;27;20043;-82
2023/09/15 10:10:49;;;;;;;5.05;2.58;;;25.20;94.40;;;;;;4250244;27;20502;-81
2023/09/15 10:12:50;;;;;;;8.23;1.70;;;25.30;94.00;;;;;;4250100;27;20046;-81
2023/09/15 10:14:55;;;;;;;4.82;2.45;;;25.60;94.10;;;;;;4250808;27;20100;-81
2023/09/15 10:16:57;;;;;;;4.05;2.25;;;25.50;92.90;;;;;;4251408;27;20046;-81
2023/09/15 10:19:03;;;;;;;4.70;2.20;;;25.70;93.20;;;;;;4237430;28;20427;-81
2023/09/15 10:21:06;;;;;;;5.18;1.75;;;26.00;93.40;;;;;;4264024;27;20491;-81
2023/09/15 10:23:08;;;;;;;4.63;1.80;;;26.10;93.20;;;;;;4255435;27;20039;-81
2023/09/15 10:25:21;;;;;;;4.90;2.17;;;26.40;93.60;;;;;;4249796;27;20922;-81
2023/09/15 10:27:21;;;;;;;6.80;1.83;;;26.50;92.60;;;;;;4249916;27;20050;-81
2023/09/15 10:29:30;;;;;;;6.43;2.42;;;26.80;93.40;;;;;;4231731;28;20556;-81
2023/09/15 10:31:35;;;;;;;4.50;2.22;;;26.60;89.30;;;;;;4250231;27;20051;-81
2023/09/15 10:33:39;;;;;;;6.28;2.13;;;26.40;91.20;;;;;;4252787;27;20043;-81
2023/09/15 10:35:44;;;;;;;5.63;1.98;;;26.40;90.70;;;;;;4251516;27;20078;-81
2023/09/15 10:37:47;;;;;;;6.00;1.90;;;26.20;91.10;;;;;;4222023;28;20048;-81
2023/09/15 10:39:58;;;;;;;6.40;2.42;;;26.20;90.90;;;;;;4240770;27;20470;-81
2023/09/15 10:42:08;;;;;;;5.10;2.40;;;26.40;90.40;;;;;;4249540;27;20050;-81
2023/09/15 10:44:10;;;;;;;6.10;2.33;;;26.20;88.00;;;;;;4248435;27;20047;-81